sensor_id;sensor_type;location;lat;lon;timestamp;P1;durP1;ratioP1;P2;durP2;ratioP2
28551;SDS011;15752;49.560;8.708;2022-07-10T00:00:08;3.10;;;2.70;;
28551;SDS011;15752;49.560;8.708;2022-07-10T00:02:39;2.88;;;2.67;;
28551;SDS011;15752;49.560;8.708;2022-07-10T00:05:10;2.60;;;2.40;;
28551;SDS011;15752;49.560;8.708;2022-07-10T00:07:45;2.70;;;2.50;;
28551;SDS011;15752;49.560;8.708;2022-07-10T00:10:15;2.80;;;2.60;;
28551;SDS011;15752;49.560;8.708;2022-07-10T00:12:46;3.72;;;3.08;;
28551;SDS011;15752;49.560;8.708;2022-07-10T00:15:16;2.92;;;2.63;;
28551;SDS011;15752;49.560;8.708;2022-07-10T00:17:47;2.92;;;2.72;;
28551;SDS011;15752;49.560;8.708;2022-07-10T00:20:16;4.05;;;3.38;;
28551;SDS011;15752;49.560;8.708;2022-07-10T00:22:45;3.25;;;3.03;;
28551;SDS011;15752;49.560;8.708;2022-07-10T00:25:14;6.30;;;3.63;;
28551;SDS011;15752;49.560;8.708;2022-07-10T00:27:42;5.82;;;3.15;;
28551;SDS011;15752;49.560;8.708;2022-07-10T00:30:11;3.65;;;2.92;;
28551;SDS011;15752;49.560;8.708;2022-07-10T00:32:40;3.65;;;2.92;;
28551;SDS011;15752;49.560;8.708;2022-07-10T00:35:10;4.78;;;3.20;;
28551;SDS011;15752;49.560;8.708;2022-07-10T00:37:39;3.47;;;2.90;;
28551;SDS011;15752;49.560;8.708;2022-07-10T00:40:08;3.10;;;2.80;;
28551;SDS011;15752;49.560;8.708;2022-07-10T00:42:37;2.88;;;2.42;;
28551;SDS011;15752;49.560;8.708;2022-07-10T00:45:06;3.00;;;2.80;;
28551;SDS011;15752;49.560;8.708;2022-07-10T00:47:36;2.80;;;2.60;;
28551;SDS011;15752;49.560;8.708;2022-07-10T00:50:05;3.00;;;2.65;;
28551;SDS011;15752;49.560;8.708;2022-07-10T00:52:37;2.65;;;2.45;;
28551;SDS011;15752;49.560;8.708;2022-07-10T00:55:06;2.72;;;2.53;;
28551;SDS011;15752;49.560;8.708;2022-07-10T00:57:37;3.13;;;2.92;;
28551;SDS011;15752;49.560;8.708;2022-07-10T01:00:08;3.42;;;2.47;;
28551;SDS011;15752;49.560;8.708;2022-07-10T01:02:39;2.60;;;2.40;;
28551;SDS011;15752;49.560;8.708;2022-07-10T01:05:10;2.60;;;2.25;;
28551;SDS011;15752;49.560;8.708;2022-07-10T01:07:40;2.65;;;2.45;;
28551;SDS011;15752;49.560;8.708;2022-07-10T01:10:09;3.25;;;2.53;;
28551;SDS011;15752;49.560;8.708;2022-07-10T01:12:38;3.13;;;2.83;;
28551;SDS011;15752;49.560;8.708;2022-07-10T01:15:07;3.42;;;2.63;;
28551;SDS011;15752;49.560;8.708;2022-07-10T01:17:37;2.85;;;2.63;;
28551;SDS011;15752;49.560;8.708;2022-07-10T01:20:06;3.42;;;2.53;;
28551;SDS011;15752;49.560;8.708;2022-07-10T01:22:38;3.03;;;2.78;;
28551;SDS011;15752;49.560;8.708;2022-07-10T01:25:07;2.90;;;2.55;;
28551;SDS011;15752;49.560;8.708;2022-07-10T01:27:37;3.00;;;2.80;;
28551;SDS011;15752;49.560;8.708;2022-07-10T01:30:07;2.67;;;2.47;;
28551;SDS011;15752;49.560;8.708;2022-07-10T01:32:37;2.92;;;2.72;;
28551;SDS011;15752;49.560;8.708;2022-07-10T01:35:07;2.80;;;2.60;;
28551;SDS011;15752;49.560;8.708;2022-07-10T01:37:38;2.60;;;2.40;;
28551;SDS011;15752;49.560;8.708;2022-07-10T01:40:07;1.95;;;1.85;;
28551;SDS011;15752;49.560;8.708;2022-07-10T01:42:37;2.67;;;2.47;;
28551;SDS011;15752;49.560;8.708;2022-07-10T01:45:06;3.38;;;2.63;;
28551;SDS011;15752;49.560;8.708;2022-07-10T01:47:36;2.35;;;2.17;;
28551;SDS011;15752;49.560;8.708;2022-07-10T01:50:05;2.47;;;2.28;;
28551;SDS011;15752;49.560;8.708;2022-07-10T01:52:35;3.03;;;2.60;;
28551;SDS011;15752;49.560;8.708;2022-07-10T01:55:06;2.42;;;2.22;;
28551;SDS011;15752;49.560;8.708;2022-07-10T01:57:36;2.80;;;2.53;;
28551;SDS011;15752;49.560;8.708;2022-07-10T02:00:05;2.85;;;2.53;;
28551;SDS011;15752;49.560;8.708;2022-07-10T02:02:38;2.88;;;2.67;;
28551;SDS011;15752;49.560;8.708;2022-07-10T02:05:07;3.15;;;2.55;;
28551;SDS011;15752;49.560;8.708;2022-07-10T02:07:35;3.03;;;2.58;;
28551;SDS011;15752;49.560;8.708;2022-07-10T02:10:06;2.90;;;2.60;;
28551;SDS011;15752;49.560;8.708;2022-07-10T02:12:35;3.47;;;2.40;;
28551;SDS011;15752;49.560;8.708;2022-07-10T02:15:05;2.60;;;2.40;;
28551;SDS011;15752;49.560;8.708;2022-07-10T02:17:35;2.60;;;2.28;;
28551;SDS011;15752;49.560;8.708;2022-07-10T02:20:04;2.50;;;2.30;;
28551;SDS011;15752;49.560;8.708;2022-07-10T02:22:36;2.75;;;2.08;;
28551;SDS011;15752;49.560;8.708;2022-07-10T02:25:07;2.50;;;2.30;;
28551;SDS011;15752;49.560;8.708;2022-07-10T02:27:36;2.53;;;2.33;;
28551;SDS011;15752;49.560;8.708;2022-07-10T02:30:06;2.43;;;2.13;;
28551;SDS011;15752;49.560;8.708;2022-07-10T02:32:35;2.65;;;2.45;;
28551;SDS011;15752;49.560;8.708;2022-07-10T02:35:04;2.80;;;2.60;;
28551;SDS011;15752;49.560;8.708;2022-07-10T02:37:33;2.47;;;2.25;;
28551;SDS011;15752;49.560;8.708;2022-07-10T02:40:02;2.70;;;2.50;;
28551;SDS011;15752;49.560;8.708;2022-07-10T02:42:33;3.77;;;3.03;;
28551;SDS011;15752;49.560;8.708;2022-07-10T02:45:02;3.30;;;3.00;;
28551;SDS011;15752;49.560;8.708;2022-07-10T02:47:32;2.90;;;2.70;;
28551;SDS011;15752;49.560;8.708;2022-07-10T02:50:00;3.50;;;3.20;;
28551;SDS011;15752;49.560;8.708;2022-07-10T02:52:29;2.80;;;2.60;;
28551;SDS011;15752;49.560;8.708;2022-07-10T02:54:58;2.60;;;2.35;;
28551;SDS011;15752;49.560;8.708;2022-07-10T02:57:27;2.25;;;2.08;;
28551;SDS011;15752;49.560;8.708;2022-07-10T02:59:57;2.30;;;2.10;;
28551;SDS011;15752;49.560;8.708;2022-07-10T03:02:25;1.95;;;1.80;;
28551;SDS011;15752;49.560;8.708;2022-07-10T03:04:54;2.73;;;2.30;;
28551;SDS011;15752;49.560;8.708;2022-07-10T03:07:23;2.30;;;2.00;;
28551;SDS011;15752;49.560;8.708;2022-07-10T03:09:52;3.53;;;1.92;;
28551;SDS011;15752;49.560;8.708;2022-07-10T03:12:20;2.15;;;1.88;;
28551;SDS011;15752;49.560;8.708;2022-07-10T03:14:49;2.20;;;1.80;;
28551;SDS011;15752;49.560;8.708;2022-07-10T03:17:19;2.13;;;1.90;;
28551;SDS011;15752;49.560;8.708;2022-07-10T03:19:48;2.88;;;1.90;;
28551;SDS011;15752;49.560;8.708;2022-07-10T03:22:16;2.77;;;2.00;;
28551;SDS011;15752;49.560;8.708;2022-07-10T03:24:45;3.53;;;1.75;;
28551;SDS011;15752;49.560;8.708;2022-07-10T03:27:14;1.70;;;1.60;;
28551;SDS011;15752;49.560;8.708;2022-07-10T03:29:43;2.22;;;1.70;;
28551;SDS011;15752;49.560;8.708;2022-07-10T03:32:12;2.13;;;1.92;;
28551;SDS011;15752;49.560;8.708;2022-07-10T03:34:42;2.20;;;1.60;;
28551;SDS011;15752;49.560;8.708;2022-07-10T03:37:11;2.00;;;1.45;;
28551;SDS011;15752;49.560;8.708;2022-07-10T03:39:40;1.92;;;1.80;;
28551;SDS011;15752;49.560;8.708;2022-07-10T03:42:08;2.08;;;1.50;;
28551;SDS011;15752;49.560;8.708;2022-07-10T03:44:37;2.17;;;1.65;;
28551;SDS011;15752;49.560;8.708;2022-07-10T03:47:06;2.63;;;1.70;;
28551;SDS011;15752;49.560;8.708;2022-07-10T03:49:35;1.77;;;1.50;;
28551;SDS011;15752;49.560;8.708;2022-07-10T03:52:06;1.63;;;1.50;;
28551;SDS011;15752;49.560;8.708;2022-07-10T03:54:35;4.07;;;2.30;;
28551;SDS011;15752;49.560;8.708;2022-07-10T03:57:04;2.05;;;1.77;;
28551;SDS011;15752;49.560;8.708;2022-07-10T03:59:50;3.67;;;2.17;;
28551;SDS011;15752;49.560;8.708;2022-07-10T04:02:19;1.98;;;1.77;;
28551;SDS011;15752;49.560;8.708;2022-07-10T04:04:47;2.80;;;2.20;;
28551;SDS011;15752;49.560;8.708;2022-07-10T04:07:18;2.33;;;2.13;;
28551;SDS011;15752;49.560;8.708;2022-07-10T04:09:47;2.38;;;1.85;;
28551;SDS011;15752;49.560;8.708;2022-07-10T04:12:15;2.25;;;1.83;;
28551;SDS011;15752;49.560;8.708;2022-07-10T04:14:44;2.15;;;1.95;;
28551;SDS011;15752;49.560;8.708;2022-07-10T04:17:14;2.17;;;2.03;;
28551;SDS011;15752;49.560;8.708;2022-07-10T04:19:43;2.08;;;1.88;;
28551;SDS011;15752;49.560;8.708;2022-07-10T04:22:12;5.37;;;2.30;;
28551;SDS011;15752;49.560;8.708;2022-07-10T04:24:42;3.20;;;2.50;;
28551;SDS011;15752;49.560;8.708;2022-07-10T04:27:11;3.05;;;2.47;;
28551;SDS011;15752;49.560;8.708;2022-07-10T04:29:41;3.30;;;2.25;;
28551;SDS011;15752;49.560;8.708;2022-07-10T04:32:10;3.35;;;2.75;;
28551;SDS011;15752;49.560;8.708;2022-07-10T04:34:39;2.53;;;2.33;;
28551;SDS011;15752;49.560;8.708;2022-07-10T04:37:08;3.07;;;2.60;;
28551;SDS011;15752;49.560;8.708;2022-07-10T04:39:36;5.22;;;3.42;;
28551;SDS011;15752;49.560;8.708;2022-07-10T04:42:07;3.80;;;3.35;;
28551;SDS011;15752;49.560;8.708;2022-07-10T04:44:36;3.22;;;2.90;;
28551;SDS011;15752;49.560;8.708;2022-07-10T04:47:05;4.43;;;2.80;;
28551;SDS011;15752;49.560;8.708;2022-07-10T04:49:34;5.63;;;2.07;;
28551;SDS011;15752;49.560;8.708;2022-07-10T04:52:03;4.43;;;2.33;;
28551;SDS011;15752;49.560;8.708;2022-07-10T04:54:33;4.17;;;2.60;;
28551;SDS011;15752;49.560;8.708;2022-07-10T04:57:01;2.47;;;2.27;;
28551;SDS011;15752;49.560;8.708;2022-07-10T04:59:32;4.37;;;1.90;;
28551;SDS011;15752;49.560;8.708;2022-07-10T05:02:01;3.50;;;1.85;;
28551;SDS011;15752;49.560;8.708;2022-07-10T05:04:30;2.67;;;1.80;;
28551;SDS011;15752;49.560;8.708;2022-07-10T05:06:59;4.63;;;1.55;;
28551;SDS011;15752;49.560;8.708;2022-07-10T05:09:27;3.55;;;2.05;;
28551;SDS011;15752;49.560;8.708;2022-07-10T05:11:56;2.42;;;1.60;;
28551;SDS011;15752;49.560;8.708;2022-07-10T05:14:24;2.45;;;1.60;;
28551;SDS011;15752;49.560;8.708;2022-07-10T05:16:55;3.95;;;1.63;;
28551;SDS011;15752;49.560;8.708;2022-07-10T05:19:23;1.52;;;1.30;;
28551;SDS011;15752;49.560;8.708;2022-07-10T05:21:52;2.70;;;1.20;;
28551;SDS011;15752;49.560;8.708;2022-07-10T05:24:21;2.33;;;1.40;;
28551;SDS011;15752;49.560;8.708;2022-07-10T05:26:50;2.83;;;1.40;;
28551;SDS011;15752;49.560;8.708;2022-07-10T05:29:19;3.40;;;1.50;;
28551;SDS011;15752;49.560;8.708;2022-07-10T05:31:47;7.03;;;1.45;;
28551;SDS011;15752;49.560;8.708;2022-07-10T05:34:18;3.90;;;1.52;;
28551;SDS011;15752;49.560;8.708;2022-07-10T05:36:46;2.97;;;1.08;;
28551;SDS011;15752;49.560;8.708;2022-07-10T05:39:15;2.03;;;1.00;;
28551;SDS011;15752;49.560;8.708;2022-07-10T05:41:44;3.77;;;1.27;;
28551;SDS011;15752;49.560;8.708;2022-07-10T05:44:12;1.27;;;0.90;;
28551;SDS011;15752;49.560;8.708;2022-07-10T05:46:41;3.85;;;1.05;;
28551;SDS011;15752;49.560;8.708;2022-07-10T05:49:10;4.25;;;1.20;;
28551;SDS011;15752;49.560;8.708;2022-07-10T05:51:40;3.35;;;0.93;;
28551;SDS011;15752;49.560;8.708;2022-07-10T05:54:11;2.55;;;1.25;;
28551;SDS011;15752;49.560;8.708;2022-07-10T05:56:39;2.72;;;1.13;;
28551;SDS011;15752;49.560;8.708;2022-07-10T05:59:08;2.80;;;0.90;;
28551;SDS011;15752;49.560;8.708;2022-07-10T06:01:37;2.88;;;1.05;;
28551;SDS011;15752;49.560;8.708;2022-07-10T06:04:05;5.93;;;1.58;;
28551;SDS011;15752;49.560;8.708;2022-07-10T06:06:34;2.00;;;1.05;;
28551;SDS011;15752;49.560;8.708;2022-07-10T06:09:04;3.45;;;1.23;;
28551;SDS011;15752;49.560;8.708;2022-07-10T06:11:33;2.73;;;1.20;;
28551;SDS011;15752;49.560;8.708;2022-07-10T06:14:02;2.65;;;1.35;;
28551;SDS011;15752;49.560;8.708;2022-07-10T06:16:30;3.17;;;1.20;;
28551;SDS011;15752;49.560;8.708;2022-07-10T06:18:59;3.63;;;1.10;;
28551;SDS011;15752;49.560;8.708;2022-07-10T06:21:28;3.25;;;1.40;;
28551;SDS011;15752;49.560;8.708;2022-07-10T06:23:57;2.90;;;1.10;;
28551;SDS011;15752;49.560;8.708;2022-07-10T06:26:27;2.90;;;1.20;;
28551;SDS011;15752;49.560;8.708;2022-07-10T06:28:56;2.30;;;1.05;;
28551;SDS011;15752;49.560;8.708;2022-07-10T06:31:24;3.95;;;1.63;;
28551;SDS011;15752;49.560;8.708;2022-07-10T06:33:53;3.83;;;1.00;;
28551;SDS011;15752;49.560;8.708;2022-07-10T06:36:22;1.75;;;1.00;;
28551;SDS011;15752;49.560;8.708;2022-07-10T06:38:56;3.03;;;1.02;;
28551;SDS011;15752;49.560;8.708;2022-07-10T06:41:24;3.40;;;1.08;;
28551;SDS011;15752;49.560;8.708;2022-07-10T06:43:54;7.38;;;1.40;;
28551;SDS011;15752;49.560;8.708;2022-07-10T06:46:23;3.47;;;1.10;;
28551;SDS011;15752;49.560;8.708;2022-07-10T06:48:52;2.35;;;0.88;;
28551;SDS011;15752;49.560;8.708;2022-07-10T06:51:20;3.30;;;0.93;;
28551;SDS011;15752;49.560;8.708;2022-07-10T06:53:49;2.47;;;1.20;;
28551;SDS011;15752;49.560;8.708;2022-07-10T06:56:18;2.28;;;0.90;;
28551;SDS011;15752;49.560;8.708;2022-07-10T06:58:48;2.78;;;1.15;;
28551;SDS011;15752;49.560;8.708;2022-07-10T07:01:20;2.20;;;1.00;;
28551;SDS011;15752;49.560;8.708;2022-07-10T07:03:49;2.45;;;0.80;;
28551;SDS011;15752;49.560;8.708;2022-07-10T07:06:18;3.58;;;0.90;;
28551;SDS011;15752;49.560;8.708;2022-07-10T07:08:47;3.05;;;0.90;;
28551;SDS011;15752;49.560;8.708;2022-07-10T07:11:16;1.50;;;0.90;;
28551;SDS011;15752;49.560;8.708;2022-07-10T07:13:44;2.65;;;0.93;;
28551;SDS011;15752;49.560;8.708;2022-07-10T07:16:14;2.05;;;0.95;;
28551;SDS011;15752;49.560;8.708;2022-07-10T07:18:45;1.25;;;0.50;;
28551;SDS011;15752;49.560;8.708;2022-07-10T07:21:18;2.33;;;0.80;;
28551;SDS011;15752;49.560;8.708;2022-07-10T07:24:05;1.65;;;0.80;;
28551;SDS011;15752;49.560;8.708;2022-07-10T07:26:34;2.92;;;0.88;;
28551;SDS011;15752;49.560;8.708;2022-07-10T07:29:02;1.70;;;0.82;;
28551;SDS011;15752;49.560;8.708;2022-07-10T07:31:32;2.35;;;0.70;;
28551;SDS011;15752;49.560;8.708;2022-07-10T07:34:01;0.98;;;0.70;;
28551;SDS011;15752;49.560;8.708;2022-07-10T07:36:30;3.67;;;1.10;;
28551;SDS011;15752;49.560;8.708;2022-07-10T07:38:59;0.98;;;0.60;;
28551;SDS011;15752;49.560;8.708;2022-07-10T07:41:27;1.65;;;0.57;;
28551;SDS011;15752;49.560;8.708;2022-07-10T07:43:56;1.73;;;0.82;;
28551;SDS011;15752;49.560;8.708;2022-07-10T07:46:25;0.77;;;0.60;;
28551;SDS011;15752;49.560;8.708;2022-07-10T07:48:55;2.25;;;0.70;;
28551;SDS011;15752;49.560;8.708;2022-07-10T07:51:24;3.03;;;0.80;;
28551;SDS011;15752;49.560;8.708;2022-07-10T07:53:53;1.73;;;0.73;;
28551;SDS011;15752;49.560;8.708;2022-07-10T07:56:21;0.68;;;0.52;;
28551;SDS011;15752;49.560;8.708;2022-07-10T07:58:50;2.03;;;0.77;;
28551;SDS011;15752;49.560;8.708;2022-07-10T08:01:19;1.83;;;1.13;;
28551;SDS011;15752;49.560;8.708;2022-07-10T08:03:47;1.95;;;0.82;;
28551;SDS011;15752;49.560;8.708;2022-07-10T08:06:35;1.35;;;0.60;;
28551;SDS011;15752;49.560;8.708;2022-07-10T08:09:04;1.15;;;0.77;;
28551;SDS011;15752;49.560;8.708;2022-07-10T08:11:33;1.40;;;0.65;;
28551;SDS011;15752;49.560;8.708;2022-07-10T08:14:02;2.10;;;0.90;;
28551;SDS011;15752;49.560;8.708;2022-07-10T08:16:30;1.98;;;0.90;;
28551;SDS011;15752;49.560;8.708;2022-07-10T08:18:59;0.73;;;0.63;;
28551;SDS011;15752;49.560;8.708;2022-07-10T08:21:28;1.63;;;0.60;;
28551;SDS011;15752;49.560;8.708;2022-07-10T08:23:59;3.33;;;0.82;;
28551;SDS011;15752;49.560;8.708;2022-07-10T08:26:28;1.58;;;0.65;;
28551;SDS011;15752;49.560;8.708;2022-07-10T08:28:57;0.52;;;0.52;;
28551;SDS011;15752;49.560;8.708;2022-07-10T08:31:26;1.50;;;0.63;;
28551;SDS011;15752;49.560;8.708;2022-07-10T08:33:54;0.75;;;0.60;;
28551;SDS011;15752;49.560;8.708;2022-07-10T08:36:23;0.90;;;0.55;;
28551;SDS011;15752;49.560;8.708;2022-07-10T08:39:08;1.77;;;0.55;;
28551;SDS011;15752;49.560;8.708;2022-07-10T08:41:37;2.38;;;0.50;;
28551;SDS011;15752;49.560;8.708;2022-07-10T08:44:07;2.92;;;0.70;;
28551;SDS011;15752;49.560;8.708;2022-07-10T08:46:35;1.95;;;0.80;;
28551;SDS011;15752;49.560;8.708;2022-07-10T08:49:05;1.58;;;0.60;;
28551;SDS011;15752;49.560;8.708;2022-07-10T08:51:38;3.17;;;1.15;;
28551;SDS011;15752;49.560;8.708;2022-07-10T08:54:14;2.70;;;0.73;;
28551;SDS011;15752;49.560;8.708;2022-07-10T08:56:48;2.15;;;0.70;;
28551;SDS011;15752;49.560;8.708;2022-07-10T08:59:17;3.58;;;0.88;;
28551;SDS011;15752;49.560;8.708;2022-07-10T09:01:47;1.60;;;0.63;;
28551;SDS011;15752;49.560;8.708;2022-07-10T09:04:16;1.10;;;0.50;;
28551;SDS011;15752;49.560;8.708;2022-07-10T09:06:48;2.40;;;0.93;;
28551;SDS011;15752;49.560;8.708;2022-07-10T09:09:18;2.10;;;0.65;;
28551;SDS011;15752;49.560;8.708;2022-07-10T09:11:47;1.45;;;0.70;;
28551;SDS011;15752;49.560;8.708;2022-07-10T09:14:16;4.65;;;1.02;;
28551;SDS011;15752;49.560;8.708;2022-07-10T09:17:00;2.10;;;0.73;;
28551;SDS011;15752;49.560;8.708;2022-07-10T09:19:30;2.08;;;0.50;;
28551;SDS011;15752;49.560;8.708;2022-07-10T09:22:01;1.75;;;0.63;;
28551;SDS011;15752;49.560;8.708;2022-07-10T09:24:38;1.48;;;0.68;;
28551;SDS011;15752;49.560;8.708;2022-07-10T09:27:09;2.40;;;1.02;;
28551;SDS011;15752;49.560;8.708;2022-07-10T09:29:44;1.27;;;0.63;;
28551;SDS011;15752;49.560;8.708;2022-07-10T09:32:15;2.55;;;0.60;;
28551;SDS011;15752;49.560;8.708;2022-07-10T09:34:45;2.03;;;0.82;;
28551;SDS011;15752;49.560;8.708;2022-07-10T09:37:22;2.63;;;0.80;;
28551;SDS011;15752;49.560;8.708;2022-07-10T09:39:55;1.80;;;0.90;;
28551;SDS011;15752;49.560;8.708;2022-07-10T09:42:27;4.38;;;0.80;;
28551;SDS011;15752;49.560;8.708;2022-07-10T09:45:15;1.60;;;0.80;;
28551;SDS011;15752;49.560;8.708;2022-07-10T09:47:53;3.25;;;0.60;;
28551;SDS011;15752;49.560;8.708;2022-07-10T09:50:25;2.28;;;0.75;;
28551;SDS011;15752;49.560;8.708;2022-07-10T09:52:56;1.55;;;0.68;;
28551;SDS011;15752;49.560;8.708;2022-07-10T09:55:28;0.90;;;0.60;;
28551;SDS011;15752;49.560;8.708;2022-07-10T09:57:58;1.85;;;0.77;;
28551;SDS011;15752;49.560;8.708;2022-07-10T10:00:28;1.58;;;0.63;;
28551;SDS011;15752;49.560;8.708;2022-07-10T10:02:59;2.65;;;0.70;;
28551;SDS011;15752;49.560;8.708;2022-07-10T10:05:34;2.72;;;0.80;;
28551;SDS011;15752;49.560;8.708;2022-07-10T10:08:11;1.75;;;0.70;;
28551;SDS011;15752;49.560;8.708;2022-07-10T10:10:46;4.57;;;0.98;;
28551;SDS011;15752;49.560;8.708;2022-07-10T10:13:16;2.95;;;1.75;;
28551;SDS011;15752;49.560;8.708;2022-07-10T10:15:47;1.75;;;0.80;;
28551;SDS011;15752;49.560;8.708;2022-07-10T10:18:17;2.10;;;0.95;;
28551;SDS011;15752;49.560;8.708;2022-07-10T10:20:47;2.10;;;0.80;;
28551;SDS011;15752;49.560;8.708;2022-07-10T10:23:18;1.27;;;0.52;;
28551;SDS011;15752;49.560;8.708;2022-07-10T10:25:50;2.40;;;0.55;;
28551;SDS011;15752;49.560;8.708;2022-07-10T10:28:21;3.00;;;0.60;;
28551;SDS011;15752;49.560;8.708;2022-07-10T10:30:52;0.90;;;0.57;;
28551;SDS011;15752;49.560;8.708;2022-07-10T10:33:42;1.60;;;0.77;;
28551;SDS011;15752;49.560;8.708;2022-07-10T10:39:17;2.63;;;1.00;;
28551;SDS011;15752;49.560;8.708;2022-07-10T10:41:48;1.67;;;0.70;;
28551;SDS011;15752;49.560;8.708;2022-07-10T10:44:22;2.13;;;0.60;;
28551;SDS011;15752;49.560;8.708;2022-07-10T10:47:00;1.42;;;0.50;;
28551;SDS011;15752;49.560;8.708;2022-07-10T10:49:55;1.40;;;0.65;;
28551;SDS011;15752;49.560;8.708;2022-07-10T10:52:25;3.15;;;0.77;;
28551;SDS011;15752;49.560;8.708;2022-07-10T10:55:04;0.85;;;0.47;;
28551;SDS011;15752;49.560;8.708;2022-07-10T10:57:42;1.48;;;0.60;;
28551;SDS011;15752;49.560;8.708;2022-07-10T11:00:30;1.75;;;0.60;;
28551;SDS011;15752;49.560;8.708;2022-07-10T11:03:15;1.50;;;0.80;;
28551;SDS011;15752;49.560;8.708;2022-07-10T11:05:47;2.30;;;0.90;;
28551;SDS011;15752;49.560;8.708;2022-07-10T11:14:09;1.23;;;0.65;;
28551;SDS011;15752;49.560;8.708;2022-07-10T11:16:45;3.97;;;0.55;;
28551;SDS011;15752;49.560;8.708;2022-07-10T11:19:20;1.92;;;0.60;;
28551;SDS011;15752;49.560;8.708;2022-07-10T11:21:55;1.95;;;0.70;;
28551;SDS011;15752;49.560;8.708;2022-07-10T11:25:03;2.88;;;0.70;;
28551;SDS011;15752;49.560;8.708;2022-07-10T11:27:53;1.45;;;0.73;;
28551;SDS011;15752;49.560;8.708;2022-07-10T11:30:47;1.98;;;0.73;;
28551;SDS011;15752;49.560;8.708;2022-07-10T11:33:19;1.35;;;0.50;;
28551;SDS011;15752;49.560;8.708;2022-07-10T11:35:50;0.90;;;0.68;;
28551;SDS011;15752;49.560;8.708;2022-07-10T11:38:20;2.38;;;0.90;;
28551;SDS011;15752;49.560;8.708;2022-07-10T11:40:50;1.45;;;0.50;;
28551;SDS011;15752;49.560;8.708;2022-07-10T11:43:21;2.22;;;0.80;;
28551;SDS011;15752;49.560;8.708;2022-07-10T11:45:52;1.70;;;0.60;;
28551;SDS011;15752;49.560;8.708;2022-07-10T11:48:26;1.20;;;0.70;;
28551;SDS011;15752;49.560;8.708;2022-07-10T11:50:54;2.88;;;0.80;;
28551;SDS011;15752;49.560;8.708;2022-07-10T11:53:24;1.55;;;0.60;;
28551;SDS011;15752;49.560;8.708;2022-07-10T11:55:54;4.68;;;0.70;;
28551;SDS011;15752;49.560;8.708;2022-07-10T11:58:23;2.08;;;0.73;;
28551;SDS011;15752;49.560;8.708;2022-07-10T12:01:00;4.03;;;0.70;;
28551;SDS011;15752;49.560;8.708;2022-07-10T12:03:33;0.98;;;0.70;;
28551;SDS011;15752;49.560;8.708;2022-07-10T12:06:03;1.45;;;0.75;;
28551;SDS011;15752;49.560;8.708;2022-07-10T12:08:43;5.00;;;0.80;;
28551;SDS011;15752;49.560;8.708;2022-07-10T12:11:13;1.70;;;0.90;;
28551;SDS011;15752;49.560;8.708;2022-07-10T12:13:43;1.70;;;1.08;;
28551;SDS011;15752;49.560;8.708;2022-07-10T12:16:14;2.38;;;0.90;;
28551;SDS011;15752;49.560;8.708;2022-07-10T12:18:43;5.97;;;1.00;;
28551;SDS011;15752;49.560;8.708;2022-07-10T12:21:14;2.72;;;1.00;;
28551;SDS011;15752;49.560;8.708;2022-07-10T12:23:44;2.67;;;0.90;;
28551;SDS011;15752;49.560;8.708;2022-07-10T12:26:15;1.23;;;0.88;;
28551;SDS011;15752;49.560;8.708;2022-07-10T12:28:50;1.88;;;0.90;;
28551;SDS011;15752;49.560;8.708;2022-07-10T12:31:23;2.58;;;0.80;;
28551;SDS011;15752;49.560;8.708;2022-07-10T12:33:54;2.03;;;1.13;;
28551;SDS011;15752;49.560;8.708;2022-07-10T12:36:40;1.52;;;0.90;;
28551;SDS011;15752;49.560;8.708;2022-07-10T12:39:11;2.33;;;0.85;;
28551;SDS011;15752;49.560;8.708;2022-07-10T12:41:58;3.45;;;0.80;;
28551;SDS011;15752;49.560;8.708;2022-07-10T12:44:36;3.58;;;1.25;;
28551;SDS011;15752;49.560;8.708;2022-07-10T12:47:09;1.05;;;0.65;;
28551;SDS011;15752;49.560;8.708;2022-07-10T12:49:52;3.88;;;1.08;;
28551;SDS011;15752;49.560;8.708;2022-07-10T12:52:24;3.13;;;1.05;;
28551;SDS011;15752;49.560;8.708;2022-07-10T12:55:07;2.08;;;0.70;;
28551;SDS011;15752;49.560;8.708;2022-07-10T12:57:47;1.63;;;0.80;;
28551;SDS011;15752;49.560;8.708;2022-07-10T13:00:19;2.13;;;0.88;;
28551;SDS011;15752;49.560;8.708;2022-07-10T13:02:57;2.80;;;0.98;;
28551;SDS011;15752;49.560;8.708;2022-07-10T13:05:29;1.75;;;0.75;;
28551;SDS011;15752;49.560;8.708;2022-07-10T13:08:06;2.55;;;0.82;;
28551;SDS011;15752;49.560;8.708;2022-07-10T13:10:39;1.85;;;1.02;;
28551;SDS011;15752;49.560;8.708;2022-07-10T13:13:09;1.35;;;0.65;;
28551;SDS011;15752;49.560;8.708;2022-07-10T13:15:38;1.02;;;0.80;;
28551;SDS011;15752;49.560;8.708;2022-07-10T13:18:13;1.60;;;0.82;;
28551;SDS011;15752;49.560;8.708;2022-07-10T13:20:44;4.18;;;1.00;;
28551;SDS011;15752;49.560;8.708;2022-07-10T13:23:14;6.88;;;1.63;;
28551;SDS011;15752;49.560;8.708;2022-07-10T13:25:43;2.45;;;1.10;;
28551;SDS011;15752;49.560;8.708;2022-07-10T13:28:12;3.63;;;1.30;;
28551;SDS011;15752;49.560;8.708;2022-07-10T13:30:40;1.70;;;0.80;;
28551;SDS011;15752;49.560;8.708;2022-07-10T13:33:09;1.52;;;0.68;;
28551;SDS011;15752;49.560;8.708;2022-07-10T13:35:40;1.52;;;0.88;;
28551;SDS011;15752;49.560;8.708;2022-07-10T13:38:08;1.33;;;0.90;;
28551;SDS011;15752;49.560;8.708;2022-07-10T13:40:43;2.13;;;0.77;;
28551;SDS011;15752;49.560;8.708;2022-07-10T13:43:12;1.80;;;0.90;;
28551;SDS011;15752;49.560;8.708;2022-07-10T13:45:43;3.35;;;0.90;;
28551;SDS011;15752;49.560;8.708;2022-07-10T13:48:12;1.13;;;0.63;;
28551;SDS011;15752;49.560;8.708;2022-07-10T13:50:43;2.38;;;1.05;;
28551;SDS011;15752;49.560;8.708;2022-07-10T13:53:14;1.95;;;1.20;;
28551;SDS011;15752;49.560;8.708;2022-07-10T13:55:43;1.60;;;0.90;;
28551;SDS011;15752;49.560;8.708;2022-07-10T13:58:13;2.60;;;1.10;;
28551;SDS011;15752;49.560;8.708;2022-07-10T14:00:42;3.63;;;1.13;;
28551;SDS011;15752;49.560;8.708;2022-07-10T14:03:11;3.63;;;0.80;;
28551;SDS011;15752;49.560;8.708;2022-07-10T14:05:40;3.03;;;0.82;;
28551;SDS011;15752;49.560;8.708;2022-07-10T14:08:10;1.67;;;0.73;;
28551;SDS011;15752;49.560;8.708;2022-07-10T14:10:38;1.63;;;0.70;;
28551;SDS011;15752;49.560;8.708;2022-07-10T14:13:07;1.88;;;0.70;;
28551;SDS011;15752;49.560;8.708;2022-07-10T14:15:38;2.53;;;0.80;;
28551;SDS011;15752;49.560;8.708;2022-07-10T14:18:11;1.77;;;0.70;;
28551;SDS011;15752;49.560;8.708;2022-07-10T14:20:40;1.67;;;0.80;;
28551;SDS011;15752;49.560;8.708;2022-07-10T14:23:28;2.80;;;0.90;;
28551;SDS011;15752;49.560;8.708;2022-07-10T14:25:57;1.73;;;1.00;;
28551;SDS011;15752;49.560;8.708;2022-07-10T14:28:25;2.03;;;0.93;;
28551;SDS011;15752;49.560;8.708;2022-07-10T14:30:54;4.10;;;1.00;;
28551;SDS011;15752;49.560;8.708;2022-07-10T14:33:24;4.13;;;0.75;;
28551;SDS011;15752;49.560;8.708;2022-07-10T14:35:53;3.40;;;1.00;;
28551;SDS011;15752;49.560;8.708;2022-07-10T14:38:22;2.42;;;1.00;;
28551;SDS011;15752;49.560;8.708;2022-07-10T14:40:52;2.35;;;0.75;;
28551;SDS011;15752;49.560;8.708;2022-07-10T14:43:22;1.13;;;0.70;;
28551;SDS011;15752;49.560;8.708;2022-07-10T14:45:52;2.47;;;1.08;;
28551;SDS011;15752;49.560;8.708;2022-07-10T14:48:29;1.52;;;0.63;;
28551;SDS011;15752;49.560;8.708;2022-07-10T14:50:58;4.30;;;1.17;;
28551;SDS011;15752;49.560;8.708;2022-07-10T14:53:27;1.17;;;0.80;;
28551;SDS011;15752;49.560;8.708;2022-07-10T14:55:57;4.55;;;1.25;;
28551;SDS011;15752;49.560;8.708;2022-07-10T14:58:26;5.72;;;2.95;;
28551;SDS011;15752;49.560;8.708;2022-07-10T15:00:54;4.60;;;3.10;;
28551;SDS011;15752;49.560;8.708;2022-07-10T15:03:23;3.95;;;1.92;;
28551;SDS011;15752;49.560;8.708;2022-07-10T15:05:52;2.20;;;1.10;;
28551;SDS011;15752;49.560;8.708;2022-07-10T15:08:23;1.45;;;0.82;;
28551;SDS011;15752;49.560;8.708;2022-07-10T15:10:52;4.20;;;0.90;;
28551;SDS011;15752;49.560;8.708;2022-07-10T15:13:22;2.28;;;0.90;;
28551;SDS011;15752;49.560;8.708;2022-07-10T15:15:51;1.45;;;0.80;;
28551;SDS011;15752;49.560;8.708;2022-07-10T15:18:20;1.80;;;0.77;;